createdAt,value
2017-12-16T00:00:40.136Z,10.00
2017-12-16T00:03:07.598Z,10.20
2017-12-16T00:05:35.072Z,9.37
2017-12-16T00:08:02.529Z,9.57
2017-12-16T00:10:30.012Z,9.57
2017-12-16T00:12:57.468Z,9.87
2017-12-16T00:15:24.951Z,10.00
2017-12-16T00:17:52.412Z,10.00
2017-12-16T00:20:19.884Z,9.43
2017-12-16T00:22:47.341Z,9.80
2017-12-16T00:25:14.830Z,9.73
2017-12-16T00:27:42.293Z,9.90
2017-12-16T00:30:09.745Z,9.50
2017-12-16T00:32:37.216Z,9.50
2017-12-16T00:35:04.673Z,9.27
2017-12-16T00:37:32.148Z,11.83
2017-12-16T00:39:59.605Z,9.27
2017-12-16T00:42:27.086Z,9.13
2017-12-16T00:44:54.548Z,9.63
2017-12-16T00:47:22.021Z,9.73
2017-12-16T00:49:49.481Z,8.90
2017-12-16T00:52:16.961Z,9.00
2017-12-16T00:54:44.420Z,8.93
2017-12-16T00:57:11.897Z,8.20
2017-12-16T00:59:39.354Z,8.10
2017-12-16T01:02:06.860Z,8.17
2017-12-16T01:04:34.321Z,8.83
2017-12-16T01:07:01.799Z,7.90
2017-12-16T01:09:29.266Z,8.37
2017-12-16T01:11:56.743Z,7.83
2017-12-16T01:14:24.205Z,8.60
2017-12-16T01:16:51.682Z,8.17
2017-12-16T01:19:19.140Z,7.80
2017-12-16T01:21:46.593Z,7.70
2017-12-16T01:24:14.084Z,8.73
2017-12-16T01:26:41.608Z,9.40
2017-12-16T01:29:09.077Z,9.43
2017-12-16T01:31:36.532Z,8.67
2017-12-16T01:34:16.009Z,8.63
2017-12-16T01:36:55.385Z,8.17
2017-12-16T01:39:22.860Z,9.80
2017-12-16T01:41:50.322Z,9.03
2017-12-16T01:44:17.787Z,8.33
2017-12-16T01:46:45.261Z,9.30
2017-12-16T01:49:12.720Z,9.10
2017-12-16T01:51:40.178Z,8.20
2017-12-16T01:54:07.648Z,8.50
2017-12-16T01:56:35.096Z,7.53
2017-12-16T01:59:02.557Z,8.23
2017-12-16T02:01:30.029Z,7.80
2017-12-16T02:03:57.484Z,9.00
2017-12-16T02:06:24.941Z,8.40
2017-12-16T02:08:52.417Z,7.33
2017-12-16T02:11:19.878Z,8.00
2017-12-16T02:13:47.336Z,8.67
2017-12-16T02:16:14.808Z,8.20
2017-12-16T02:18:42.274Z,8.13
2017-12-16T02:21:09.737Z,8.10
2017-12-16T02:23:37.213Z,8.77
2017-12-16T02:26:04.673Z,8.20
2017-12-16T02:28:32.133Z,8.20
2017-12-16T02:30:59.617Z,8.67
2017-12-16T02:33:27.078Z,8.50
2017-12-16T02:35:54.534Z,8.00
2017-12-16T02:38:22.010Z,9.07
2017-12-16T02:40:49.460Z,7.73
2017-12-16T02:43:17.005Z,8.20
2017-12-16T02:45:44.481Z,8.17
2017-12-16T02:48:11.940Z,7.83
2017-12-16T02:50:39.426Z,8.50
2017-12-16T02:53:06.881Z,7.93
2017-12-16T02:55:34.353Z,8.73
2017-12-16T02:58:01.817Z,8.57
2017-12-16T03:00:29.276Z,8.47
2017-12-16T03:02:56.756Z,8.67
2017-12-16T03:05:24.212Z,8.57
2017-12-16T03:07:51.664Z,7.97
2017-12-16T03:10:19.141Z,9.03
2017-12-16T03:12:46.603Z,8.80
2017-12-16T03:15:14.072Z,8.17
2017-12-16T03:17:41.558Z,9.40
2017-12-16T03:20:09.012Z,8.43
2017-12-16T03:22:36.469Z,8.83
2017-12-16T03:25:03.937Z,8.10
2017-12-16T03:27:31.412Z,8.40
2017-12-16T03:29:59.325Z,7.93
2017-12-16T03:32:26.801Z,9.47
2017-12-16T03:34:54.252Z,8.40
2017-12-16T03:37:21.847Z,8.00
2017-12-16T03:39:49.320Z,8.43
2017-12-16T03:42:16.777Z,8.67
2017-12-16T03:44:44.269Z,7.83
2017-12-16T03:47:11.720Z,7.77
2017-12-16T03:49:39.193Z,8.10
2017-12-16T03:52:06.690Z,9.17
2017-12-16T03:54:34.150Z,7.77
2017-12-16T03:57:01.623Z,7.53
2017-12-16T03:59:29.080Z,7.50
2017-12-16T04:01:56.556Z,8.33
2017-12-16T04:04:24.079Z,8.27
2017-12-16T04:06:51.553Z,8.20
2017-12-16T04:09:19.010Z,7.97
2017-12-16T04:11:46.472Z,7.20
2017-12-16T04:14:13.940Z,7.70
2017-12-16T04:16:41.396Z,8.03
2017-12-16T04:19:08.865Z,8.33
2017-12-16T04:21:36.316Z,8.10
2017-12-16T04:24:03.785Z,9.30
2017-12-16T04:26:31.241Z,7.20
2017-12-16T04:28:58.692Z,8.50
2017-12-16T04:31:26.160Z,8.40
2017-12-16T04:33:53.617Z,7.57
2017-12-16T04:36:21.089Z,8.13
2017-12-16T04:38:48.550Z,7.47
2017-12-16T04:41:16.042Z,8.17
2017-12-16T04:43:43.497Z,7.43
2017-12-16T04:46:10.953Z,7.50
2017-12-16T04:48:38.425Z,8.17
2017-12-16T04:51:05.888Z,9.00
2017-12-16T04:53:33.365Z,8.70
2017-12-16T04:56:00.825Z,8.13
2017-12-16T04:58:28.281Z,7.90
2017-12-16T05:00:55.758Z,7.73
2017-12-16T05:03:23.213Z,9.17
2017-12-16T05:05:50.673Z,7.70
2017-12-16T05:08:18.148Z,7.80
2017-12-16T05:10:45.615Z,7.90
2017-12-16T05:13:13.072Z,8.53
2017-12-16T05:15:40.544Z,8.10
2017-12-16T05:18:08.001Z,8.00
2017-12-16T05:20:35.465Z,7.60
2017-12-16T05:23:02.932Z,7.80
2017-12-16T05:25:30.393Z,8.03
2017-12-16T05:27:57.856Z,7.93
2017-12-16T05:30:25.325Z,7.53
2017-12-16T05:32:52.776Z,7.33
2017-12-16T05:35:20.249Z,8.43
2017-12-16T05:37:47.713Z,8.70
2017-12-16T05:40:15.169Z,7.60
2017-12-16T05:42:42.674Z,7.60
2017-12-16T05:45:10.140Z,7.90
2017-12-16T05:47:37.625Z,7.70
2017-12-16T05:50:05.077Z,8.13
2017-12-16T05:52:32.557Z,8.23
2017-12-16T05:55:00.021Z,8.77
2017-12-16T05:57:27.488Z,11.33
2017-12-16T05:59:54.956Z,9.30
2017-12-16T06:02:22.421Z,8.70
2017-12-16T06:04:49.905Z,9.60
2017-12-16T06:07:17.372Z,8.47
2017-12-16T06:09:44.845Z,9.20
2017-12-16T06:12:12.300Z,8.77
2017-12-16T06:14:39.758Z,8.10
2017-12-16T06:17:07.228Z,8.83
2017-12-16T06:19:34.681Z,8.30
2017-12-16T06:22:02.129Z,8.50
2017-12-16T06:24:29.597Z,9.37
2017-12-16T06:26:57.112Z,8.80
2017-12-16T06:29:24.577Z,8.67
2017-12-16T06:31:52.057Z,7.97
2017-12-16T06:34:19.541Z,8.57
2017-12-16T06:36:47.041Z,9.43
2017-12-16T06:39:14.507Z,9.17
2017-12-16T06:41:41.980Z,9.00
2017-12-16T06:44:09.457Z,8.80
2017-12-16T06:46:36.916Z,8.50
2017-12-16T06:49:04.400Z,10.10
2017-12-16T06:51:31.856Z,9.00
2017-12-16T06:53:59.329Z,9.30
2017-12-16T06:56:26.816Z,10.33
2017-12-16T06:58:54.280Z,9.60
2017-12-16T07:01:21.763Z,8.77
2017-12-16T07:03:49.253Z,8.73
2017-12-16T07:06:16.730Z,9.90
2017-12-16T07:08:44.213Z,9.27
2017-12-16T07:11:11.676Z,11.00
2017-12-16T07:13:39.153Z,12.43
2017-12-16T07:16:06.633Z,10.83
2017-12-16T07:18:34.107Z,11.33
2017-12-16T07:21:01.573Z,10.47
2017-12-16T07:23:29.056Z,11.53
2017-12-16T07:25:56.517Z,12.13
2017-12-16T07:28:23.981Z,10.07
2017-12-16T07:30:51.461Z,10.27
2017-12-16T07:33:18.921Z,9.17
2017-12-16T07:35:46.379Z,8.63
2017-12-16T07:38:13.853Z,9.00
2017-12-16T07:40:41.309Z,10.60
2017-12-16T07:43:08.785Z,9.47
2017-12-16T07:45:36.244Z,8.40
2017-12-16T07:48:03.705Z,8.90
2017-12-16T07:50:31.270Z,9.07
2017-12-16T07:52:58.744Z,8.20
2017-12-16T07:55:26.208Z,10.87
2017-12-16T07:57:53.683Z,8.60
2017-12-16T08:00:21.137Z,9.53
2017-12-16T08:02:48.609Z,8.23
2017-12-16T08:05:16.066Z,9.23
2017-12-16T08:07:43.948Z,10.13
2017-12-16T08:10:11.401Z,9.47
2017-12-16T08:12:38.870Z,10.47
2017-12-16T08:15:06.729Z,10.83
2017-12-16T08:17:34.188Z,9.03
2017-12-16T08:20:01.651Z,8.70
2017-12-16T08:22:29.137Z,9.83
2017-12-16T08:24:56.593Z,9.27
2017-12-16T08:27:24.049Z,8.43
2017-12-16T08:29:51.525Z,8.87
2017-12-16T08:32:18.988Z,8.70
2017-12-16T08:34:46.534Z,8.60
2017-12-16T08:37:14.037Z,9.33
2017-12-16T08:39:41.489Z,9.40
2017-12-16T08:42:08.962Z,8.77
2017-12-16T08:44:36.421Z,8.80
2017-12-16T08:47:03.872Z,9.37
2017-12-16T08:49:31.513Z,12.37
2017-12-16T08:51:58.970Z,8.87
2017-12-16T08:54:26.468Z,8.20
2017-12-16T08:56:53.925Z,9.33
2017-12-16T08:59:21.380Z,9.47
2017-12-16T09:01:48.862Z,8.63
2017-12-16T09:04:16.340Z,10.20
2017-12-16T09:06:43.793Z,9.50
2017-12-16T09:09:11.252Z,9.30
2017-12-16T09:11:38.724Z,9.67
2017-12-16T09:14:06.193Z,11.63
2017-12-16T09:16:33.669Z,10.43
2017-12-16T09:19:01.128Z,10.90
2017-12-16T09:21:28.593Z,10.40
2017-12-16T09:23:56.082Z,11.20
2017-12-16T09:26:23.541Z,10.83
2017-12-16T09:28:51.010Z,11.80
2017-12-16T09:31:18.501Z,10.90
2017-12-16T09:33:45.977Z,11.00
2017-12-16T09:36:13.437Z,10.87
2017-12-16T09:38:40.920Z,10.40
2017-12-16T09:41:08.397Z,10.20
2017-12-16T09:43:35.870Z,10.60
2017-12-16T09:46:03.328Z,10.47
2017-12-16T09:48:30.807Z,11.77
2017-12-16T09:50:58.268Z,10.83
2017-12-16T09:53:25.733Z,10.67
2017-12-16T09:55:53.217Z,10.70
2017-12-16T09:58:20.676Z,10.77
2017-12-16T10:00:48.128Z,10.33
2017-12-16T10:03:15.602Z,9.97
2017-12-16T10:05:43.070Z,10.17
2017-12-16T10:08:10.545Z,9.90
2017-12-16T10:10:38.009Z,10.80
2017-12-16T10:13:05.469Z,10.70
2017-12-16T10:15:32.949Z,10.37
2017-12-16T10:18:00.412Z,11.13
2017-12-16T10:20:27.894Z,9.80
2017-12-16T10:22:55.358Z,12.00
2017-12-16T10:25:22.828Z,11.30
2017-12-16T10:27:50.316Z,11.87
2017-12-16T10:30:17.780Z,11.47
2017-12-16T10:32:45.244Z,13.67
2017-12-16T10:35:12.729Z,11.20
2017-12-16T10:37:40.193Z,11.30
2017-12-16T10:40:07.661Z,11.50
2017-12-16T10:42:35.140Z,12.20
2017-12-16T10:45:02.609Z,12.63
2017-12-16T10:47:30.140Z,11.87
2017-12-16T10:49:57.623Z,11.83
2017-12-16T10:52:25.089Z,12.17
2017-12-16T10:54:52.553Z,12.47
2017-12-16T10:57:20.033Z,12.03
2017-12-16T10:59:47.506Z,11.73
2017-12-16T11:02:14.972Z,11.73
2017-12-16T11:04:42.461Z,11.90
2017-12-16T11:07:09.925Z,12.33
2017-12-16T11:09:37.408Z,11.67
2017-12-16T11:12:04.878Z,11.53
2017-12-16T11:14:32.341Z,12.37
2017-12-16T11:16:59.821Z,11.73
2017-12-16T11:19:27.289Z,11.53
2017-12-16T11:21:54.773Z,12.80
2017-12-16T11:24:22.240Z,12.97
2017-12-16T11:26:49.701Z,11.50
2017-12-16T11:29:17.195Z,13.00
2017-12-16T11:31:44.661Z,11.20
2017-12-16T11:34:12.145Z,11.87
2017-12-16T11:36:39.608Z,13.10
2017-12-16T11:39:07.153Z,11.73
2017-12-16T11:41:34.713Z,11.83
2017-12-16T11:44:02.189Z,12.13
2017-12-16T11:46:29.729Z,11.63
2017-12-16T11:48:57.193Z,11.70
2017-12-16T11:51:24.668Z,12.67
2017-12-16T11:53:52.148Z,11.70
2017-12-16T11:56:19.617Z,11.70
2017-12-16T11:58:47.117Z,11.40
2017-12-16T12:01:14.600Z,12.23
2017-12-16T12:03:42.064Z,11.17
2017-12-16T12:06:09.524Z,12.37
2017-12-16T12:08:37.006Z,11.80
2017-12-16T12:11:04.472Z,11.60
2017-12-16T12:13:31.954Z,12.70
2017-12-16T12:15:59.437Z,11.00
2017-12-16T12:18:26.900Z,11.17
2017-12-16T12:20:54.369Z,10.37
2017-12-16T12:23:21.840Z,10.50
2017-12-16T12:25:49.296Z,10.20
2017-12-16T12:28:16.756Z,11.17
2017-12-16T12:30:44.233Z,10.83
2017-12-16T12:33:11.704Z,10.00
2017-12-16T12:35:39.161Z,9.20
2017-12-16T12:38:06.642Z,10.67
2017-12-16T12:40:34.104Z,10.10
2017-12-16T12:43:01.564Z,10.60
2017-12-16T12:45:29.033Z,9.57
2017-12-16T12:47:56.498Z,10.73
2017-12-16T12:50:23.962Z,11.03
2017-12-16T12:52:51.443Z,10.03
2017-12-16T12:55:18.904Z,9.33
2017-12-16T12:57:46.369Z,10.37
2017-12-16T13:00:13.851Z,9.20
2017-12-16T13:02:41.318Z,9.60
2017-12-16T13:05:08.781Z,9.13
2017-12-16T13:07:36.263Z,9.77
2017-12-16T13:10:03.737Z,8.80
2017-12-16T13:12:31.197Z,10.30
2017-12-16T13:14:58.671Z,9.70
2017-12-16T13:17:26.129Z,10.47
2017-12-16T13:19:53.604Z,10.47
2017-12-16T13:22:21.064Z,9.73
2017-12-16T13:24:48.544Z,9.97
2017-12-16T13:27:15.996Z,9.73
2017-12-16T13:29:43.457Z,10.83
2017-12-16T13:32:10.937Z,10.07
2017-12-16T13:34:38.404Z,12.17
2017-12-16T13:37:05.889Z,11.63
2017-12-16T13:39:33.344Z,10.50
2017-12-16T13:42:00.835Z,11.93
2017-12-16T13:44:28.317Z,11.47
2017-12-16T13:46:55.769Z,9.93
2017-12-16T13:49:23.252Z,11.17
2017-12-16T13:51:50.707Z,10.70
2017-12-16T13:54:18.165Z,10.47
2017-12-16T13:56:45.742Z,11.13
2017-12-16T13:59:13.169Z,11.57
2017-12-16T14:01:40.652Z,12.90
2017-12-16T14:04:08.112Z,14.47
2017-12-16T14:06:35.596Z,15.03
2017-12-16T14:09:03.079Z,16.10
2017-12-16T14:11:30.550Z,17.13
2017-12-16T14:13:58.049Z,17.73
2017-12-16T14:16:25.517Z,16.67
2017-12-16T14:18:52.980Z,15.47
2017-12-16T14:21:20.493Z,15.60
2017-12-16T14:23:47.959Z,15.27
2017-12-16T14:26:15.556Z,16.57
2017-12-16T14:28:43.033Z,16.53
2017-12-16T14:31:10.574Z,16.97
2017-12-16T14:33:38.064Z,17.43
2017-12-16T14:36:05.557Z,17.10
2017-12-16T14:38:33.037Z,16.97
2017-12-16T14:41:00.532Z,18.07
2017-12-16T14:43:27.998Z,20.03
2017-12-16T14:45:55.508Z,20.17
2017-12-16T14:48:22.981Z,21.67
2017-12-16T14:50:50.472Z,23.37
2017-12-16T14:53:17.952Z,24.00
2017-12-16T14:55:45.420Z,24.37
2017-12-16T14:58:12.912Z,24.27
2017-12-16T15:00:40.681Z,25.70
2017-12-16T15:03:08.259Z,26.53
2017-12-16T15:05:35.746Z,31.23
2017-12-16T15:08:03.302Z,30.87
2017-12-16T15:10:30.776Z,29.07
2017-12-16T15:12:58.272Z,28.07
2017-12-16T15:15:25.746Z,28.13
2017-12-16T15:17:53.220Z,31.60
2017-12-16T15:20:20.932Z,30.47
2017-12-16T15:22:48.407Z,33.70
2017-12-16T15:25:15.874Z,32.33
2017-12-16T15:27:43.361Z,37.13
2017-12-16T15:30:10.833Z,33.43
2017-12-16T15:32:38.300Z,33.63
2017-12-16T15:35:05.784Z,32.77
2017-12-16T15:37:33.269Z,32.03
2017-12-16T15:40:00.753Z,30.10
2017-12-16T15:42:28.228Z,33.60
2017-12-16T15:44:55.712Z,31.63
2017-12-16T15:47:23.201Z,34.20
2017-12-16T15:49:50.664Z,32.83
2017-12-16T15:52:18.136Z,36.60
2017-12-16T15:54:45.621Z,30.83
2017-12-16T15:57:13.084Z,33.40
2017-12-16T15:59:40.548Z,34.77
2017-12-16T16:02:08.053Z,33.50
2017-12-16T16:04:35.520Z,37.73
2017-12-16T16:07:02.987Z,35.73
2017-12-16T16:09:30.473Z,34.33
2017-12-16T16:11:57.946Z,38.93
2017-12-16T16:14:25.422Z,38.70
2017-12-16T16:16:52.908Z,35.27
2017-12-16T16:19:20.397Z,31.17
2017-12-16T16:21:47.868Z,35.10
2017-12-16T16:24:15.349Z,36.73
2017-12-16T16:26:42.817Z,32.07
2017-12-16T16:29:10.304Z,37.67
2017-12-16T16:31:37.769Z,40.07
2017-12-16T16:34:05.302Z,38.03
2017-12-16T16:36:32.796Z,37.33
2017-12-16T16:39:00.261Z,39.27
2017-12-16T16:41:28.537Z,36.23
2017-12-16T16:43:56.002Z,42.40
2017-12-16T16:46:23.468Z,32.13
2017-12-16T16:48:51.074Z,39.07
2017-12-16T16:51:18.540Z,40.30
2017-12-16T16:53:46.004Z,45.30
2017-12-16T16:56:13.493Z,47.57
2017-12-16T16:58:40.957Z,49.00
2017-12-16T17:01:08.420Z,40.30
2017-12-16T17:03:35.909Z,33.67
2017-12-16T17:06:04.205Z,34.87
2017-12-16T17:08:31.677Z,32.50
2017-12-16T17:10:59.160Z,32.10
2017-12-16T17:13:26.628Z,33.87
2017-12-16T17:15:54.093Z,25.03
2017-12-16T17:18:21.580Z,28.17
2017-12-16T17:20:49.061Z,34.23
2017-12-16T17:23:16.533Z,31.43
2017-12-16T17:25:44.017Z,28.30
2017-12-16T17:28:11.489Z,52.27
2017-12-16T17:30:38.957Z,33.83
2017-12-16T17:33:06.441Z,36.33
2017-12-16T17:35:33.917Z,37.53
2017-12-16T17:38:01.384Z,32.40
2017-12-16T17:40:28.864Z,28.70
2017-12-16T17:42:56.345Z,30.37
2017-12-16T17:45:23.957Z,29.90
2017-12-16T17:47:51.441Z,38.93
2017-12-16T17:50:18.909Z,43.73
2017-12-16T17:52:46.400Z,35.67
2017-12-16T17:55:13.868Z,32.23
2017-12-16T17:57:41.364Z,31.37
2017-12-16T18:00:08.828Z,28.40
2017-12-16T18:02:36.351Z,29.13
2017-12-16T18:05:03.801Z,25.90
2017-12-16T18:07:31.273Z,27.13
2017-12-16T18:09:58.761Z,27.47
2017-12-16T18:12:26.231Z,28.33
2017-12-16T18:14:53.713Z,31.17
2017-12-16T18:17:21.184Z,28.10
2017-12-16T18:19:48.661Z,29.47
2017-12-16T18:22:16.145Z,30.90
2017-12-16T18:24:43.661Z,29.57
2017-12-16T18:27:11.128Z,34.13
2017-12-16T18:29:38.623Z,33.80
2017-12-16T18:32:06.088Z,32.13
2017-12-16T18:34:33.593Z,30.63
2017-12-16T18:37:01.072Z,31.63
2017-12-16T18:39:28.592Z,33.77
2017-12-16T18:41:56.064Z,29.97
2017-12-16T18:44:23.551Z,30.00
2017-12-16T18:46:51.017Z,32.87
2017-12-16T18:49:18.481Z,34.17
2017-12-16T18:51:45.965Z,32.93
2017-12-16T18:54:13.433Z,29.77
2017-12-16T18:56:40.997Z,38.43
2017-12-16T18:59:08.484Z,45.43
2017-12-16T19:01:35.949Z,50.30
2017-12-16T19:04:03.430Z,43.13
2017-12-16T19:06:30.929Z,41.93
2017-12-16T19:08:58.468Z,79.63
2017-12-16T19:11:25.940Z,44.13
2017-12-16T19:13:53.429Z,59.27
2017-12-16T19:16:20.902Z,44.77
2017-12-16T19:18:48.386Z,50.60
2017-12-16T19:21:15.857Z,72.20
2017-12-16T19:23:43.325Z,61.60
2017-12-16T19:26:10.829Z,61.53
2017-12-16T19:28:38.297Z,48.93
2017-12-16T19:31:05.764Z,47.90
2017-12-16T19:33:33.252Z,52.00
2017-12-16T19:36:00.733Z,50.90
2017-12-16T19:38:28.208Z,51.90
2017-12-16T19:40:55.692Z,51.97
2017-12-16T19:43:23.156Z,54.07
2017-12-16T19:45:50.621Z,47.20
2017-12-16T19:48:18.120Z,47.97
2017-12-16T19:50:45.589Z,47.07
2017-12-16T19:53:13.082Z,48.83
2017-12-16T19:55:40.552Z,45.20
2017-12-16T19:58:08.043Z,43.57
2017-12-16T20:00:35.513Z,41.10
2017-12-16T20:03:02.999Z,39.93
2017-12-16T20:05:30.484Z,52.20
2017-12-16T20:07:57.957Z,41.80
2017-12-16T20:10:25.441Z,42.83
2017-12-16T20:12:52.912Z,46.53
2017-12-16T20:15:20.408Z,44.93
2017-12-16T20:17:47.900Z,43.87
2017-12-16T20:20:15.371Z,48.23
2017-12-16T20:22:42.868Z,44.33
2017-12-16T20:25:10.379Z,44.37
2017-12-16T20:27:37.845Z,47.30
2017-12-16T20:30:05.332Z,43.70
2017-12-16T20:32:32.833Z,44.67
2017-12-16T20:35:00.325Z,45.70
2017-12-16T20:37:27.789Z,47.70
2017-12-16T20:39:55.261Z,46.57
2017-12-16T20:42:22.745Z,48.77
2017-12-16T20:44:50.212Z,48.60
2017-12-16T20:47:17.719Z,48.17
2017-12-16T20:49:45.201Z,50.20
2017-12-16T20:52:12.665Z,52.43
2017-12-16T20:54:40.161Z,46.00
2017-12-16T20:57:07.624Z,45.47
2017-12-16T20:59:35.088Z,45.93
2017-12-16T21:02:02.577Z,44.17
2017-12-16T21:04:30.041Z,42.33
2017-12-16T21:06:57.513Z,46.87
2017-12-16T21:09:25.009Z,49.67
2017-12-16T21:11:52.484Z,49.30
2017-12-16T21:14:19.956Z,46.10
2017-12-16T21:16:47.484Z,46.70
2017-12-16T21:19:15.053Z,55.23
2017-12-16T21:21:42.529Z,52.60
2017-12-16T21:24:10.017Z,54.73
2017-12-16T21:26:37.525Z,51.50
2017-12-16T21:29:04.992Z,49.50
2017-12-16T21:31:32.464Z,45.67
2017-12-16T21:33:59.957Z,52.90
2017-12-16T21:36:27.458Z,45.60
2017-12-16T21:38:54.928Z,39.27
2017-12-16T21:41:22.413Z,42.87
2017-12-16T21:43:49.886Z,47.37
2017-12-16T21:46:17.368Z,45.70
2017-12-16T21:48:44.857Z,42.13
2017-12-16T21:51:12.341Z,40.57
2017-12-16T21:53:39.804Z,40.47
2017-12-16T21:56:07.393Z,44.40
2017-12-16T21:58:34.888Z,43.13
2017-12-16T22:01:02.521Z,41.40
2017-12-16T22:03:30.036Z,39.93
2017-12-16T22:05:57.663Z,40.77
2017-12-16T22:08:25.293Z,35.80
2017-12-16T22:10:52.825Z,35.07
2017-12-16T22:13:20.365Z,34.77
2017-12-16T22:15:47.992Z,36.50
2017-12-16T22:18:15.558Z,36.63
2017-12-16T22:20:43.254Z,35.27
2017-12-16T22:23:10.796Z,34.80
2017-12-16T22:25:38.358Z,32.07
2017-12-16T22:28:05.873Z,33.93
2017-12-16T22:30:33.432Z,30.10
2017-12-16T22:33:00.989Z,31.70
2017-12-16T22:35:28.488Z,31.03
2017-12-16T22:37:56.032Z,31.87
2017-12-16T22:40:23.521Z,31.20
2017-12-16T22:42:50.994Z,30.07
2017-12-16T22:45:18.464Z,31.93
2017-12-16T22:47:45.949Z,31.93
2017-12-16T22:50:13.425Z,31.30
2017-12-16T22:52:40.902Z,29.87
2017-12-16T22:55:08.401Z,33.60
2017-12-16T22:57:35.872Z,33.07
2017-12-16T23:00:03.464Z,35.27
2017-12-16T23:02:30.953Z,32.43
2017-12-16T23:04:58.421Z,31.87
2017-12-16T23:07:25.885Z,28.33
2017-12-16T23:09:53.366Z,29.93
2017-12-16T23:12:20.828Z,31.03
2017-12-16T23:14:48.317Z,32.30
2017-12-16T23:17:15.805Z,31.87
2017-12-16T23:19:43.290Z,30.87
2017-12-16T23:22:10.756Z,32.70
2017-12-16T23:24:38.221Z,35.80
2017-12-16T23:27:05.784Z,34.83
2017-12-16T23:29:33.249Z,31.83
2017-12-16T23:32:00.757Z,34.10
2017-12-16T23:34:28.228Z,31.73
2017-12-16T23:36:55.800Z,31.90
2017-12-16T23:39:23.301Z,32.93
2017-12-16T23:41:50.777Z,33.90
2017-12-16T23:44:18.261Z,32.07
2017-12-16T23:46:45.772Z,32.40
2017-12-16T23:49:13.261Z,30.33
2017-12-16T23:51:40.729Z,29.97
2017-12-16T23:54:08.220Z,30.63
2017-12-16T23:56:35.684Z,28.27
2017-12-16T23:59:03.149Z,30.23
